Time,TemperatureF,DewpointF,PressureIn,WindDirection,WindDirectionDegrees,WindSpeedMPH,WindSpeedGustMPH,Humidity,HourlyPrecipIn,Conditions,Clouds,dailyrainin,SoftwareType,DateUTC
2013-11-11 00:07:00,67.5,66.0,30.12,North,7,0.0,4.0,93,0.00,,,0.00,weatherlink.com 1.10,2013-11-11 05:07:00,
2013-11-11 00:22:00,67.4,65.0,30.12,North,360,2.0,4.0,93,0.00,,,0.00,weatherlink.com 1.10,2013-11-11 05:22:00,
2013-11-11 00:37:00,67.3,66.0,30.11,NNE,20,3.0,5.0,94,0.00,,,0.00,weatherlink.com 1.10,2013-11-11 05:37:00,
2013-11-11 00:52:00,67.2,66.0,30.11,NNE,17,3.0,5.0,94,0.00,,,0.00,weatherlink.com 1.10,2013-11-11 05:52:00,
2013-11-11 01:08:00,67.0,66.0,30.11,NNW,347,2.0,6.0,95,0.00,,,0.00,weatherlink.com 1.10,2013-11-11 06:08:00,
2013-11-11 01:23:00,66.8,65.0,30.11,NNE,22,2.0,6.0,95,0.00,,,0.00,weatherlink.com 1.10,2013-11-11 06:23:00,
2013-11-11 01:38:00,66.6,65.0,30.11,NNE,17,1.0,4.0,95,0.00,,,0.00,weatherlink.com 1.10,2013-11-11 06:38:00,
2013-11-11 01:53:00,66.4,65.0,30.11,NNW,340,1.0,4.0,95,0.00,,,0.00,weatherlink.com 1.10,2013-11-11 06:53:00,
2013-11-11 02:08:00,66.3,65.0,30.11,North,358,2.0,5.0,96,0.00,,,0.00,weatherlink.com 1.10,2013-11-11 07:08:00,
2013-11-11 02:23:00,66.1,65.0,30.11,NNW,347,0.0,3.0,96,0.00,,,0.00,weatherlink.com 1.10,2013-11-11 07:23:00,
2013-11-11 02:38:00,66.1,65.0,30.10,North,7,3.0,4.0,96,0.00,,,0.00,weatherlink.com 1.10,2013-11-11 07:38:00,
2013-11-11 02:53:00,66.0,65.0,30.10,NNW,336,1.0,4.0,96,0.00,,,0.00,weatherlink.com 1.10,2013-11-11 07:53:00,
2013-11-11 03:08:00,66.0,65.0,30.10,North,11,2.0,6.0,96,0.00,,,0.00,weatherlink.com 1.10,2013-11-11 08:08:00,
2013-11-11 03:23:00,66.0,65.0,30.11,NNE,26,3.0,5.0,96,0.00,,,0.00,weatherlink.com 1.10,2013-11-11 08:23:00,
2013-11-11 03:38:00,65.8,65.0,30.11,North,11,3.0,7.0,96,0.00,,,0.00,weatherlink.com 1.10,2013-11-11 08:38:00,
2013-11-11 03:53:00,65.4,64.0,30.11,NNE,12,2.0,4.0,96,0.00,,,0.00,weatherlink.com 1.10,2013-11-11 08:53:00,
2013-11-11 04:08:00,65.1,64.0,30.11,North,355,3.0,4.0,97,0.00,,,0.00,weatherlink.com 1.10,2013-11-11 09:08:00,
2013-11-11 04:23:00,64.8,64.0,30.11,North,354,1.0,3.0,97,0.00,,,0.00,weatherlink.com 1.10,2013-11-11 09:23:00,
2013-11-11 04:38:00,64.8,64.0,30.11,NE,40,4.0,5.0,97,0.00,,,0.00,weatherlink.com 1.10,2013-11-11 09:38:00,
2013-11-11 04:53:00,64.6,64.0,30.11,NNW,346,2.0,3.0,97,0.00,,,0.00,weatherlink.com 1.10,2013-11-11 09:53:00,
2013-11-11 05:08:00,64.5,64.0,30.11,North,355,1.0,5.0,97,0.00,,,0.00,weatherlink.com 1.10,2013-11-11 10:08:00,
2013-11-11 05:23:00,64.4,63.0,30.11,North,8,2.0,6.0,96,0.00,,,0.00,weatherlink.com 1.10,2013-11-11 10:23:00,
2013-11-11 05:38:00,64.3,64.0,30.11,North,2,3.0,5.0,97,0.00,,,0.00,weatherlink.com 1.10,2013-11-11 10:38:00,
2013-11-11 05:53:00,64.2,63.0,30.11,NNE,25,2.0,4.0,96,0.00,,,0.00,weatherlink.com 1.10,2013-11-11 10:53:00,
2013-11-11 06:08:00,64.2,63.0,30.12,North,11,2.0,5.0,96,0.00,,,0.00,weatherlink.com 1.10,2013-11-11 11:08:00,
2013-11-11 06:26:00,64.0,63.0,30.12,North,360,2.0,4.0,96,0.00,,,0.00,weatherlink.com 1.10,2013-11-11 11:26:00,
2013-11-11 06:37:00,64.1,63.0,30.12,North,2,1.0,5.0,96,0.00,,,0.00,weatherlink.com 1.10,2013-11-11 11:37:00,
2013-11-11 06:53:00,64.0,63.0,30.13,NNW,336,2.0,5.0,96,0.00,,,0.00,weatherlink.com 1.10,2013-11-11 11:53:00,
2013-11-11 07:08:00,64.0,63.0,30.13,North,2,0.0,4.0,96,0.00,,,0.00,weatherlink.com 1.10,2013-11-11 12:08:00,
2013-11-11 07:23:00,64.4,63.0,30.14,North,8,0.0,4.0,96,0.00,,,0.00,weatherlink.com 1.10,2013-11-11 12:23:00,
2013-11-11 07:38:00,64.8,64.0,30.14,NNW,344,2.0,4.0,96,0.00,,,0.00,weatherlink.com 1.10,2013-11-11 12:38:00,
2013-11-11 07:53:00,65.4,64.0,30.14,NNE,15,3.0,5.0,95,0.00,,,0.00,weatherlink.com 1.10,2013-11-11 12:53:00,
2013-11-11 08:23:00,67.3,65.0,30.15,NE,38,6.0,8.0,91,0.00,,,0.00,weatherlink.com 1.10,2013-11-11 13:23:00,
2013-11-11 08:38:00,68.6,65.0,30.15,NNE,21,5.0,8.0,88,0.00,,,0.00,weatherlink.com 1.10,2013-11-11 13:38:00,
2013-11-11 08:53:00,69.4,65.0,30.15,NNE,14,5.0,8.0,87,0.00,,,0.00,weatherlink.com 1.10,2013-11-11 13:53:00,
2013-11-11 09:08:00,69.6,65.0,30.15,NNE,17,2.0,8.0,86,0.00,,,0.00,weatherlink.com 1.10,2013-11-11 14:08:00,
2013-11-11 09:23:00,69.9,66.0,30.16,NE,35,4.0,7.0,86,0.00,,,0.00,weatherlink.com 1.10,2013-11-11 14:23:00,
2013-11-11 09:38:00,70.7,66.0,30.16,NE,45,6.0,8.0,86,0.00,,,0.00,weatherlink.com 1.10,2013-11-11 14:38:00,
2013-11-11 09:53:00,71.8,67.0,30.16,North,358,3.0,6.0,84,0.00,,,0.00,weatherlink.com 1.10,2013-11-11 14:53:00,
2013-11-11 10:08:00,72.5,67.0,30.16,NNE,24,3.0,7.0,83,0.00,,,0.00,weatherlink.com 1.10,2013-11-11 15:08:00,
2013-11-11 10:23:00,73.7,68.0,30.15,NNE,21,3.0,7.0,82,0.00,,,0.00,weatherlink.com 1.10,2013-11-11 15:23:00,
2013-11-11 10:38:00,74.9,68.0,30.14,NNE,24,2.0,7.0,79,0.00,,,0.00,weatherlink.com 1.10,2013-11-11 15:38:00,
2013-11-11 10:53:00,76.0,69.0,30.14,NE,35,5.0,8.0,79,0.00,,,0.00,weatherlink.com 1.10,2013-11-11 15:53:00,
2013-11-11 11:08:00,77.0,69.0,30.14,ENE,67,5.0,8.0,76,0.00,,,0.00,weatherlink.com 1.10,2013-11-11 16:08:00,
2013-11-11 11:23:00,77.8,69.0,30.13,East,101,3.0,7.0,75,0.00,,,0.00,weatherlink.com 1.10,2013-11-11 16:23:00,
2013-11-11 11:38:00,79.2,70.0,30.13,NE,36,2.0,8.0,73,0.00,,,0.00,weatherlink.com 1.10,2013-11-11 16:38:00,
2013-11-11 11:53:00,79.0,68.0,30.12,ENE,78,6.0,10.0,70,0.00,,,0.00,weatherlink.com 1.10,2013-11-11 16:53:00,
2013-11-11 12:08:00,78.8,69.0,30.11,ESE,104,1.0,9.0,71,0.00,,,0.00,weatherlink.com 1.10,2013-11-11 17:08:00,
2013-11-11 12:23:00,79.8,69.0,30.11,ESE,109,4.0,11.0,70,0.00,,,0.00,weatherlink.com 1.10,2013-11-11 17:23:00,
2013-11-11 12:38:00,80.9,68.0,30.10,ENE,69,3.0,11.0,64,0.00,,,0.00,weatherlink.com 1.10,2013-11-11 17:38:00,
2013-11-11 12:53:00,80.5,68.0,30.09,ENE,64,4.0,7.0,66,0.00,,,0.00,weatherlink.com 1.10,2013-11-11 17:53:00,
2013-11-11 13:08:00,80.8,67.0,30.08,ESE,104,4.0,6.0,64,0.00,,,0.00,weatherlink.com 1.10,2013-11-11 18:08:00,
2013-11-11 13:23:00,80.7,66.0,30.08,SE,137,5.0,6.0,62,0.00,,,0.00,weatherlink.com 1.10,2013-11-11 18:23:00,
2013-11-11 13:39:00,80.9,67.0,30.08,NNE,18,2.0,5.0,62,0.00,,,0.00,weatherlink.com 1.10,2013-11-11 18:39:00,
2013-11-11 13:54:00,80.7,67.0,30.07,NE,38,3.0,6.0,63,0.00,,,0.00,weatherlink.com 1.10,2013-11-11 18:54:00,
2013-11-11 14:09:00,80.5,67.0,30.07,NNE,22,1.0,4.0,64,0.00,,,0.00,weatherlink.com 1.10,2013-11-11 19:09:00,
2013-11-11 14:24:00,81.7,66.0,30.06,NE,35,2.0,5.0,60,0.00,,,0.00,weatherlink.com 1.10,2013-11-11 19:24:00,
2013-11-11 14:39:00,81.7,66.0,30.06,ESE,118,3.0,5.0,60,0.00,,,0.00,weatherlink.com 1.10,2013-11-11 19:39:00,
2013-11-11 14:54:00,81.6,66.0,30.06,NE,45,3.0,5.0,60,0.00,,,0.00,weatherlink.com 1.10,2013-11-11 19:54:00,
2013-11-11 15:09:00,81.8,67.0,30.05,North,350,2.0,6.0,61,0.00,,,0.00,weatherlink.com 1.10,2013-11-11 20:09:00,
2013-11-11 15:24:00,80.7,66.0,30.06,East,79,3.0,5.0,61,0.00,,,0.00,weatherlink.com 1.10,2013-11-11 20:24:00,
2013-11-11 15:39:00,80.4,66.0,30.05,North,2,1.0,2.0,61,0.00,,,0.00,weatherlink.com 1.10,2013-11-11 20:39:00,
2013-11-11 15:54:00,81.4,67.0,30.06,ESE,107,3.0,4.0,61,0.00,,,0.00,weatherlink.com 1.10,2013-11-11 20:54:00,
2013-11-11 16:09:00,81.3,66.0,30.06,NNE,15,2.0,6.0,60,0.00,,,0.00,weatherlink.com 1.10,2013-11-11 21:09:00,
2013-11-11 16:24:00,81.3,65.0,30.06,North,7,1.0,4.0,58,0.00,,,0.00,weatherlink.com 1.10,2013-11-11 21:24:00,
2013-11-11 16:39:00,80.5,66.0,30.06,North,4,0.0,6.0,61,0.00,,,0.00,weatherlink.com 1.10,2013-11-11 21:39:00,
2013-11-11 16:54:00,80.5,65.0,30.06,North,360,1.0,3.0,60,0.00,,,0.00,weatherlink.com 1.10,2013-11-11 21:54:00,
2013-11-11 17:09:00,80.3,67.0,30.06,North,360,0.0,1.0,65,0.00,,,0.00,weatherlink.com 1.10,2013-11-11 22:09:00,
2013-11-11 17:24:00,79.2,68.0,30.06,North,360,0.0,1.0,69,0.00,,,0.00,weatherlink.com 1.10,2013-11-11 22:24:00,
2013-11-11 17:39:00,76.4,67.0,30.06,North,360,0.0,0.0,73,0.00,,,0.00,weatherlink.com 1.10,2013-11-11 22:39:00,
2013-11-11 17:54:00,73.6,66.0,30.06,North,360,0.0,0.0,78,0.00,,,0.00,weatherlink.com 1.10,2013-11-11 22:54:00,
2013-11-11 18:09:00,71.6,66.0,30.06,North,360,0.0,0.0,82,0.00,,,0.00,weatherlink.com 1.10,2013-11-11 23:09:00,
2013-11-11 18:24:00,70.6,67.0,30.06,North,360,0.0,0.0,87,0.00,,,0.00,weatherlink.com 1.10,2013-11-11 23:24:00,
2013-11-11 18:39:00,69.1,66.0,30.07,North,360,0.0,0.0,88,0.00,,,0.00,weatherlink.com 1.10,2013-11-11 23:39:00,
2013-11-11 18:54:00,68.7,66.0,30.07,North,360,0.0,0.0,90,0.00,,,0.00,weatherlink.com 1.10,2013-11-11 23:54:00,
2013-11-11 19:09:00,68.7,66.0,30.07,North,360,0.0,0.0,91,0.00,,,0.00,weatherlink.com 1.10,2013-11-12 00:09:00,
2013-11-11 19:24:00,68.6,66.0,30.07,North,360,0.0,0.0,91,0.00,,,0.00,weatherlink.com 1.10,2013-11-12 00:24:00,
2013-11-11 19:39:00,68.5,66.0,30.07,North,360,0.0,0.0,92,0.00,,,0.00,weatherlink.com 1.10,2013-11-12 00:39:00,
2013-11-11 19:54:00,69.1,66.0,30.08,North,360,0.0,1.0,91,0.00,,,0.00,weatherlink.com 1.10,2013-11-12 00:54:00,
2013-11-11 20:09:00,71.0,66.0,30.08,NNE,14,0.0,2.0,85,0.00,,,0.00,weatherlink.com 1.10,2013-11-12 01:09:00,
2013-11-11 20:24:00,71.6,66.0,30.08,NNE,14,0.0,2.0,83,0.00,,,0.00,weatherlink.com 1.10,2013-11-12 01:24:00,
2013-11-11 20:39:00,71.1,66.0,30.09,North,9,0.0,2.0,85,0.00,,,0.00,weatherlink.com 1.10,2013-11-12 01:39:00,
2013-11-11 20:54:00,70.9,66.0,30.09,NNE,12,0.0,1.0,85,0.00,,,0.00,weatherlink.com 1.10,2013-11-12 01:54:00,
2013-11-11 21:09:00,70.4,66.0,30.09,NNE,12,0.0,1.0,86,0.00,,,0.00,weatherlink.com 1.10,2013-11-12 02:09:00,
2013-11-11 21:24:00,69.9,66.0,30.09,NNE,18,1.0,2.0,88,0.00,,,0.00,weatherlink.com 1.10,2013-11-12 02:24:00,
2013-11-11 21:39:00,70.3,66.0,30.09,NNE,14,1.0,3.0,87,0.00,,,0.00,weatherlink.com 1.10,2013-11-12 02:39:00,
2013-11-11 21:54:00,70.4,66.0,30.09,NNE,22,1.0,3.0,87,0.00,,,0.00,weatherlink.com 1.10,2013-11-12 02:54:00,
2013-11-11 22:09:00,69.9,66.0,30.09,North,11,1.0,3.0,88,0.00,,,0.00,weatherlink.com 1.10,2013-11-12 03:09:00,
2013-11-11 22:24:00,69.3,66.0,30.10,North,11,0.0,1.0,89,0.00,,,0.00,weatherlink.com 1.10,2013-11-12 03:24:00,
2013-11-11 22:39:00,68.6,66.0,30.10,North,11,0.0,0.0,90,0.00,,,0.00,weatherlink.com 1.10,2013-11-12 03:39:00,
2013-11-11 22:54:00,67.3,64.0,30.10,North,11,0.0,0.0,90,0.00,,,0.00,weatherlink.com 1.10,2013-11-12 03:54:00,
2013-11-11 23:09:00,66.6,65.0,30.10,North,11,0.0,0.0,93,0.00,,,0.00,weatherlink.com 1.10,2013-11-12 04:09:00,
2013-11-11 23:24:00,65.9,64.0,30.10,North,4,0.0,0.0,94,0.00,,,0.00,weatherlink.com 1.10,2013-11-12 04:24:00,
2013-11-11 23:39:00,65.3,64.0,30.09,North,4,0.0,0.0,95,0.00,,,0.00,weatherlink.com 1.10,2013-11-12 04:39:00,
2013-11-11 23:54:00,64.9,64.0,30.09,North,4,0.0,0.0,96,0.00,,,0.00,weatherlink.com 1.10,2013-11-12 04:54:00,